sensor_id;sensor_type;location;lat;lon;timestamp;temperature;humidity
24638;DHT22;12773;50.162;8.548;2022-11-24T00:00:51;9.10;99.90
24638;DHT22;12773;50.162;8.548;2022-11-24T00:03:39;9.20;99.90
24638;DHT22;12773;50.162;8.548;2022-11-24T00:06:26;9.20;99.90
24638;DHT22;12773;50.162;8.548;2022-11-24T00:09:14;9.10;99.90
24638;DHT22;12773;50.162;8.548;2022-11-24T00:12:07;9.20;99.90
24638;DHT22;12773;50.162;8.548;2022-11-24T00:15:03;9.20;99.90
24638;DHT22;12773;50.162;8.548;2022-11-24T00:17:51;9.30;99.90
24638;DHT22;12773;50.162;8.548;2022-11-24T00:20:38;9.40;99.90
24638;DHT22;12773;50.162;8.548;2022-11-24T00:23:26;9.50;99.90
24638;DHT22;12773;50.162;8.548;2022-11-24T00:26:19;9.60;99.90
24638;DHT22;12773;50.162;8.548;2022-11-24T00:29:08;9.70;99.90
24638;DHT22;12773;50.162;8.548;2022-11-24T00:31:56;9.80;99.90
24638;DHT22;12773;50.162;8.548;2022-11-24T00:34:43;9.70;99.90
24638;DHT22;12773;50.162;8.548;2022-11-24T00:37:30;9.70;99.90
24638;DHT22;12773;50.162;8.548;2022-11-24T00:40:18;9.70;99.90
24638;DHT22;12773;50.162;8.548;2022-11-24T00:43:08;9.70;99.90
24638;DHT22;12773;50.162;8.548;2022-11-24T00:45:55;9.70;99.90
24638;DHT22;12773;50.162;8.548;2022-11-24T00:48:42;9.70;99.90
24638;DHT22;12773;50.162;8.548;2022-11-24T00:51:30;9.70;99.90
24638;DHT22;12773;50.162;8.548;2022-11-24T00:54:17;9.80;99.90
24638;DHT22;12773;50.162;8.548;2022-11-24T00:57:05;9.80;99.90
24638;DHT22;12773;50.162;8.548;2022-11-24T00:59:52;9.80;99.90
24638;DHT22;12773;50.162;8.548;2022-11-24T01:02:40;9.80;99.90
24638;DHT22;12773;50.162;8.548;2022-11-24T01:05:27;9.80;99.90
24638;DHT22;12773;50.162;8.548;2022-11-24T01:08:15;9.80;99.90
24638;DHT22;12773;50.162;8.548;2022-11-24T01:11:16;9.80;99.90
24638;DHT22;12773;50.162;8.548;2022-11-24T01:14:04;9.80;99.90
24638;DHT22;12773;50.162;8.548;2022-11-24T01:16:51;9.80;99.90
24638;DHT22;12773;50.162;8.548;2022-11-24T01:19:39;9.70;99.90
24638;DHT22;12773;50.162;8.548;2022-11-24T01:22:26;9.50;99.90
24638;DHT22;12773;50.162;8.548;2022-11-24T01:25:15;9.50;99.90
24638;DHT22;12773;50.162;8.548;2022-11-24T01:28:03;9.50;99.90
24638;DHT22;12773;50.162;8.548;2022-11-24T01:30:58;9.60;99.90
24638;DHT22;12773;50.162;8.548;2022-11-24T01:33:45;9.70;99.90
24638;DHT22;12773;50.162;8.548;2022-11-24T01:36:33;9.70;99.90
24638;DHT22;12773;50.162;8.548;2022-11-24T01:39:21;9.80;99.90
24638;DHT22;12773;50.162;8.548;2022-11-24T01:42:09;9.80;99.90
24638;DHT22;12773;50.162;8.548;2022-11-24T01:48:28;10.00;99.90
24638;DHT22;12773;50.162;8.548;2022-11-24T01:51:18;9.90;99.90
24638;DHT22;12773;50.162;8.548;2022-11-24T01:54:13;9.90;99.90
24638;DHT22;12773;50.162;8.548;2022-11-24T01:57:04;9.90;99.90
24638;DHT22;12773;50.162;8.548;2022-11-24T02:00:06;9.90;99.90
24638;DHT22;12773;50.162;8.548;2022-11-24T02:02:45;9.90;99.90
24638;DHT22;12773;50.162;8.548;2022-11-24T02:05:42;9.90;99.90
24638;DHT22;12773;50.162;8.548;2022-11-24T02:08:41;9.90;99.90
24638;DHT22;12773;50.162;8.548;2022-11-24T02:11:36;10.00;99.90
24638;DHT22;12773;50.162;8.548;2022-11-24T02:14:24;9.90;99.90
24638;DHT22;12773;50.162;8.548;2022-11-24T02:17:12;10.00;99.90
24638;DHT22;12773;50.162;8.548;2022-11-24T02:20:02;10.00;99.90
24638;DHT22;12773;50.162;8.548;2022-11-24T02:23:23;10.00;99.90
24638;DHT22;12773;50.162;8.548;2022-11-24T02:29:03;10.10;99.90
24638;DHT22;12773;50.162;8.548;2022-11-24T02:31:59;10.00;99.90
24638;DHT22;12773;50.162;8.548;2022-11-24T02:34:41;10.00;99.90
24638;DHT22;12773;50.162;8.548;2022-11-24T02:37:29;10.10;99.90
24638;DHT22;12773;50.162;8.548;2022-11-24T02:40:19;10.00;99.90
24638;DHT22;12773;50.162;8.548;2022-11-24T02:43:11;10.00;99.90
24638;DHT22;12773;50.162;8.548;2022-11-24T02:45:58;10.00;99.90
24638;DHT22;12773;50.162;8.548;2022-11-24T02:48:46;9.90;99.90
24638;DHT22;12773;50.162;8.548;2022-11-24T02:51:33;9.90;99.90
24638;DHT22;12773;50.162;8.548;2022-11-24T02:54:23;9.90;99.90
24638;DHT22;12773;50.162;8.548;2022-11-24T02:57:11;9.80;99.90
24638;DHT22;12773;50.162;8.548;2022-11-24T02:59:59;9.80;99.90
24638;DHT22;12773;50.162;8.548;2022-11-24T03:02:46;9.70;99.90
24638;DHT22;12773;50.162;8.548;2022-11-24T03:05:34;9.70;99.90
24638;DHT22;12773;50.162;8.548;2022-11-24T03:08:21;9.60;99.90
24638;DHT22;12773;50.162;8.548;2022-11-24T03:11:09;9.50;99.90
24638;DHT22;12773;50.162;8.548;2022-11-24T03:13:57;9.40;99.90
24638;DHT22;12773;50.162;8.548;2022-11-24T03:16:44;9.10;99.90
24638;DHT22;12773;50.162;8.548;2022-11-24T03:19:32;9.10;99.90
24638;DHT22;12773;50.162;8.548;2022-11-24T03:22:19;9.00;99.90
24638;DHT22;12773;50.162;8.548;2022-11-24T03:25:08;8.90;99.90
24638;DHT22;12773;50.162;8.548;2022-11-24T03:27:56;8.70;99.90
24638;DHT22;12773;50.162;8.548;2022-11-24T03:30:46;8.70;99.90
24638;DHT22;12773;50.162;8.548;2022-11-24T03:33:33;8.80;99.90
24638;DHT22;12773;50.162;8.548;2022-11-24T03:36:21;8.80;99.90
24638;DHT22;12773;50.162;8.548;2022-11-24T03:39:08;8.70;99.90
24638;DHT22;12773;50.162;8.548;2022-11-24T03:41:56;8.70;99.90
24638;DHT22;12773;50.162;8.548;2022-11-24T03:44:43;8.60;99.90
24638;DHT22;12773;50.162;8.548;2022-11-24T03:47:31;8.60;99.90
24638;DHT22;12773;50.162;8.548;2022-11-24T03:50:18;8.40;99.90
24638;DHT22;12773;50.162;8.548;2022-11-24T03:53:07;8.20;99.90
24638;DHT22;12773;50.162;8.548;2022-11-24T03:55:55;8.20;99.90
24638;DHT22;12773;50.162;8.548;2022-11-24T03:58:42;8.10;99.90
24638;DHT22;12773;50.162;8.548;2022-11-24T04:01:30;8.10;99.90
24638;DHT22;12773;50.162;8.548;2022-11-24T04:04:17;8.10;99.90
24638;DHT22;12773;50.162;8.548;2022-11-24T04:07:05;8.10;99.90
24638;DHT22;12773;50.162;8.548;2022-11-24T04:09:52;8.00;99.90
24638;DHT22;12773;50.162;8.548;2022-11-24T04:12:40;8.10;99.90
24638;DHT22;12773;50.162;8.548;2022-11-24T04:15:31;8.20;99.90
24638;DHT22;12773;50.162;8.548;2022-11-24T04:18:19;8.30;99.90
24638;DHT22;12773;50.162;8.548;2022-11-24T04:21:06;8.30;99.90
24638;DHT22;12773;50.162;8.548;2022-11-24T04:23:54;8.50;99.90
24638;DHT22;12773;50.162;8.548;2022-11-24T04:26:41;8.60;99.90
24638;DHT22;12773;50.162;8.548;2022-11-24T04:29:29;8.70;99.90
24638;DHT22;12773;50.162;8.548;2022-11-24T04:32:16;8.70;99.90
24638;DHT22;12773;50.162;8.548;2022-11-24T04:35:04;8.70;99.90
24638;DHT22;12773;50.162;8.548;2022-11-24T04:37:51;8.70;99.90
24638;DHT22;12773;50.162;8.548;2022-11-24T04:40:39;8.70;99.90
24638;DHT22;12773;50.162;8.548;2022-11-24T04:43:26;8.80;99.90
24638;DHT22;12773;50.162;8.548;2022-11-24T04:46:13;8.70;99.90
24638;DHT22;12773;50.162;8.548;2022-11-24T04:49:01;8.90;99.90
24638;DHT22;12773;50.162;8.548;2022-11-24T04:51:48;9.00;99.90
24638;DHT22;12773;50.162;8.548;2022-11-24T04:54:38;9.10;99.90
24638;DHT22;12773;50.162;8.548;2022-11-24T04:57:26;9.10;99.90
24638;DHT22;12773;50.162;8.548;2022-11-24T05:00:14;9.00;99.90
24638;DHT22;12773;50.162;8.548;2022-11-24T05:03:02;9.00;99.90
24638;DHT22;12773;50.162;8.548;2022-11-24T05:05:49;8.90;99.90
24638;DHT22;12773;50.162;8.548;2022-11-24T05:08:38;9.00;99.90
24638;DHT22;12773;50.162;8.548;2022-11-24T05:11:25;8.90;99.90
24638;DHT22;12773;50.162;8.548;2022-11-24T05:14:12;8.90;99.90
24638;DHT22;12773;50.162;8.548;2022-11-24T05:17:00;9.00;99.90
24638;DHT22;12773;50.162;8.548;2022-11-24T05:19:47;9.00;99.90
24638;DHT22;12773;50.162;8.548;2022-11-24T05:22:35;9.10;99.90
24638;DHT22;12773;50.162;8.548;2022-11-24T05:25:22;9.10;99.90
24638;DHT22;12773;50.162;8.548;2022-11-24T05:28:09;9.00;99.90
24638;DHT22;12773;50.162;8.548;2022-11-24T05:31:00;9.00;99.90
24638;DHT22;12773;50.162;8.548;2022-11-24T05:33:48;9.00;99.90
24638;DHT22;12773;50.162;8.548;2022-11-24T05:36:38;9.00;99.90
24638;DHT22;12773;50.162;8.548;2022-11-24T05:39:41;9.10;99.90
24638;DHT22;12773;50.162;8.548;2022-11-24T05:42:28;9.10;99.90
24638;DHT22;12773;50.162;8.548;2022-11-24T05:45:30;9.10;99.90
24638;DHT22;12773;50.162;8.548;2022-11-24T05:48:17;9.10;99.90
24638;DHT22;12773;50.162;8.548;2022-11-24T05:51:04;9.20;99.90
24638;DHT22;12773;50.162;8.548;2022-11-24T05:53:53;9.20;99.90
24638;DHT22;12773;50.162;8.548;2022-11-24T05:56:40;9.30;99.90
24638;DHT22;12773;50.162;8.548;2022-11-24T05:59:29;9.30;99.90
24638;DHT22;12773;50.162;8.548;2022-11-24T06:02:16;9.40;99.90
24638;DHT22;12773;50.162;8.548;2022-11-24T06:05:04;9.50;99.90
24638;DHT22;12773;50.162;8.548;2022-11-24T06:07:52;9.60;99.90
24638;DHT22;12773;50.162;8.548;2022-11-24T06:10:40;9.60;99.90
24638;DHT22;12773;50.162;8.548;2022-11-24T06:13:27;9.60;99.90
24638;DHT22;12773;50.162;8.548;2022-11-24T06:16:15;9.70;99.90
24638;DHT22;12773;50.162;8.548;2022-11-24T06:19:02;9.80;99.90
24638;DHT22;12773;50.162;8.548;2022-11-24T06:21:55;9.80;99.90
24638;DHT22;12773;50.162;8.548;2022-11-24T06:24:38;9.80;99.90
24638;DHT22;12773;50.162;8.548;2022-11-24T06:27:26;9.90;99.90
24638;DHT22;12773;50.162;8.548;2022-11-24T06:30:14;9.90;99.90
24638;DHT22;12773;50.162;8.548;2022-11-24T06:33:02;10.10;99.90
24638;DHT22;12773;50.162;8.548;2022-11-24T06:35:49;10.20;99.90
24638;DHT22;12773;50.162;8.548;2022-11-24T06:38:36;10.20;99.90
24638;DHT22;12773;50.162;8.548;2022-11-24T06:41:23;10.30;99.90
24638;DHT22;12773;50.162;8.548;2022-11-24T06:44:14;10.40;99.90
24638;DHT22;12773;50.162;8.548;2022-11-24T06:47:01;10.40;99.90
24638;DHT22;12773;50.162;8.548;2022-11-24T06:49:49;10.50;99.90
24638;DHT22;12773;50.162;8.548;2022-11-24T06:52:36;10.50;99.90
24638;DHT22;12773;50.162;8.548;2022-11-24T06:55:23;10.60;99.90
24638;DHT22;12773;50.162;8.548;2022-11-24T06:58:11;10.60;99.90
24638;DHT22;12773;50.162;8.548;2022-11-24T07:00:59;10.60;99.90
24638;DHT22;12773;50.162;8.548;2022-11-24T07:03:47;10.60;99.90
24638;DHT22;12773;50.162;8.548;2022-11-24T07:06:34;10.70;99.90
24638;DHT22;12773;50.162;8.548;2022-11-24T07:09:22;10.60;99.90
24638;DHT22;12773;50.162;8.548;2022-11-24T07:12:09;10.50;99.90
24638;DHT22;12773;50.162;8.548;2022-11-24T07:14:56;10.50;99.90
24638;DHT22;12773;50.162;8.548;2022-11-24T07:17:44;10.40;99.90
24638;DHT22;12773;50.162;8.548;2022-11-24T07:20:31;10.30;99.90
24638;DHT22;12773;50.162;8.548;2022-11-24T07:23:19;10.20;99.90
24638;DHT22;12773;50.162;8.548;2022-11-24T07:26:07;10.30;99.90
24638;DHT22;12773;50.162;8.548;2022-11-24T07:28:55;10.30;99.90
24638;DHT22;12773;50.162;8.548;2022-11-24T07:31:42;10.50;99.90
24638;DHT22;12773;50.162;8.548;2022-11-24T07:34:31;10.50;99.90
24638;DHT22;12773;50.162;8.548;2022-11-24T07:37:18;10.60;99.90
24638;DHT22;12773;50.162;8.548;2022-11-24T07:40:09;10.70;99.90
24638;DHT22;12773;50.162;8.548;2022-11-24T07:42:59;10.60;99.90
24638;DHT22;12773;50.162;8.548;2022-11-24T07:45:51;10.70;99.90
24638;DHT22;12773;50.162;8.548;2022-11-24T07:48:40;10.70;99.90
24638;DHT22;12773;50.162;8.548;2022-11-24T07:51:27;10.60;99.90
24638;DHT22;12773;50.162;8.548;2022-11-24T07:54:15;10.60;99.90
24638;DHT22;12773;50.162;8.548;2022-11-24T07:57:02;10.70;99.90
24638;DHT22;12773;50.162;8.548;2022-11-24T07:59:52;10.70;99.90
24638;DHT22;12773;50.162;8.548;2022-11-24T08:02:39;10.70;99.90
24638;DHT22;12773;50.162;8.548;2022-11-24T08:05:27;10.60;99.90
24638;DHT22;12773;50.162;8.548;2022-11-24T08:08:14;10.50;99.90
24638;DHT22;12773;50.162;8.548;2022-11-24T08:11:06;10.50;99.90
24638;DHT22;12773;50.162;8.548;2022-11-24T08:13:54;10.50;99.90
24638;DHT22;12773;50.162;8.548;2022-11-24T08:16:41;10.50;99.90
24638;DHT22;12773;50.162;8.548;2022-11-24T08:19:28;10.40;99.90
24638;DHT22;12773;50.162;8.548;2022-11-24T08:22:17;10.50;99.90
24638;DHT22;12773;50.162;8.548;2022-11-24T08:25:05;10.50;99.90
24638;DHT22;12773;50.162;8.548;2022-11-24T08:27:52;10.50;99.90
24638;DHT22;12773;50.162;8.548;2022-11-24T08:30:41;10.40;99.90
24638;DHT22;12773;50.162;8.548;2022-11-24T08:33:29;10.40;99.90
24638;DHT22;12773;50.162;8.548;2022-11-24T08:36:18;10.30;99.90
24638;DHT22;12773;50.162;8.548;2022-11-24T08:39:05;10.20;99.90
24638;DHT22;12773;50.162;8.548;2022-11-24T08:41:53;10.20;99.90
24638;DHT22;12773;50.162;8.548;2022-11-24T08:44:40;10.20;99.90
24638;DHT22;12773;50.162;8.548;2022-11-24T08:47:28;10.20;99.90
24638;DHT22;12773;50.162;8.548;2022-11-24T08:50:16;10.20;99.90
24638;DHT22;12773;50.162;8.548;2022-11-24T08:53:03;10.20;99.90
24638;DHT22;12773;50.162;8.548;2022-11-24T08:55:51;10.20;99.90
24638;DHT22;12773;50.162;8.548;2022-11-24T08:58:39;10.40;99.90
24638;DHT22;12773;50.162;8.548;2022-11-24T09:01:27;10.60;99.90
24638;DHT22;12773;50.162;8.548;2022-11-24T09:04:15;10.90;99.90
24638;DHT22;12773;50.162;8.548;2022-11-24T09:07:02;11.30;99.90
24638;DHT22;12773;50.162;8.548;2022-11-24T09:09:50;11.30;99.90
24638;DHT22;12773;50.162;8.548;2022-11-24T09:12:38;11.20;99.90
24638;DHT22;12773;50.162;8.548;2022-11-24T09:15:25;11.40;99.90
24638;DHT22;12773;50.162;8.548;2022-11-24T09:18:12;11.60;99.90
24638;DHT22;12773;50.162;8.548;2022-11-24T09:23:56;11.90;99.90
24638;DHT22;12773;50.162;8.548;2022-11-24T09:26:43;11.70;99.90
24638;DHT22;12773;50.162;8.548;2022-11-24T09:29:32;11.50;99.90
24638;DHT22;12773;50.162;8.548;2022-11-24T09:32:21;11.40;99.90
24638;DHT22;12773;50.162;8.548;2022-11-24T09:35:08;11.30;99.90
24638;DHT22;12773;50.162;8.548;2022-11-24T09:37:56;11.20;99.90
24638;DHT22;12773;50.162;8.548;2022-11-24T09:40:43;10.90;99.90
24638;DHT22;12773;50.162;8.548;2022-11-24T09:47:01;10.90;99.90
24638;DHT22;12773;50.162;8.548;2022-11-24T09:50:03;11.00;99.90
24638;DHT22;12773;50.162;8.548;2022-11-24T09:56:02;11.30;99.90
24638;DHT22;12773;50.162;8.548;2022-11-24T09:58:36;11.30;99.90
24638;DHT22;12773;50.162;8.548;2022-11-24T10:04:41;11.60;99.90
24638;DHT22;12773;50.162;8.548;2022-11-24T10:07:31;11.80;99.90
24638;DHT22;12773;50.162;8.548;2022-11-24T10:10:22;11.60;99.90
24638;DHT22;12773;50.162;8.548;2022-11-24T10:16:21;11.90;99.90
24638;DHT22;12773;50.162;8.548;2022-11-24T10:28:04;11.50;99.90
24638;DHT22;12773;50.162;8.548;2022-11-24T10:30:47;11.60;99.90
24638;DHT22;12773;50.162;8.548;2022-11-24T10:33:35;11.50;99.90
24638;DHT22;12773;50.162;8.548;2022-11-24T10:36:37;11.60;99.90
24638;DHT22;12773;50.162;8.548;2022-11-24T10:39:49;11.70;99.90
24638;DHT22;12773;50.162;8.548;2022-11-24T10:42:36;11.90;99.90
24638;DHT22;12773;50.162;8.548;2022-11-24T10:45:25;11.90;99.90
24638;DHT22;12773;50.162;8.548;2022-11-24T10:48:18;11.90;99.90
24638;DHT22;12773;50.162;8.548;2022-11-24T10:54:14;12.00;99.90
24638;DHT22;12773;50.162;8.548;2022-11-24T10:57:02;12.00;99.90
24638;DHT22;12773;50.162;8.548;2022-11-24T10:59:49;12.10;99.90
24638;DHT22;12773;50.162;8.548;2022-11-24T11:02:38;12.20;99.90
24638;DHT22;12773;50.162;8.548;2022-11-24T11:05:40;12.10;99.90
24638;DHT22;12773;50.162;8.548;2022-11-24T11:08:30;12.20;99.90
24638;DHT22;12773;50.162;8.548;2022-11-24T11:11:28;12.50;99.90
24638;DHT22;12773;50.162;8.548;2022-11-24T11:14:33;12.30;99.90
24638;DHT22;12773;50.162;8.548;2022-11-24T11:17:36;12.10;99.90
24638;DHT22;12773;50.162;8.548;2022-11-24T11:20:39;12.10;99.90
24638;DHT22;12773;50.162;8.548;2022-11-24T11:23:33;12.60;99.90
24638;DHT22;12773;50.162;8.548;2022-11-24T11:26:36;13.20;99.90
24638;DHT22;12773;50.162;8.548;2022-11-24T11:29:26;13.80;99.90
24638;DHT22;12773;50.162;8.548;2022-11-24T11:32:26;14.00;99.90
24638;DHT22;12773;50.162;8.548;2022-11-24T11:35:15;14.40;99.90
24638;DHT22;12773;50.162;8.548;2022-11-24T11:38:03;14.60;99.90
24638;DHT22;12773;50.162;8.548;2022-11-24T11:40:52;14.30;99.90
24638;DHT22;12773;50.162;8.548;2022-11-24T11:43:40;14.30;99.90
24638;DHT22;12773;50.162;8.548;2022-11-24T11:46:29;14.20;99.90
24638;DHT22;12773;50.162;8.548;2022-11-24T11:49:17;14.10;99.90
24638;DHT22;12773;50.162;8.548;2022-11-24T11:52:31;13.80;99.90
24638;DHT22;12773;50.162;8.548;2022-11-24T11:55:29;13.30;99.90
24638;DHT22;12773;50.162;8.548;2022-11-24T11:58:26;13.20;99.90
24638;DHT22;12773;50.162;8.548;2022-11-24T12:10:40;12.60;99.90
24638;DHT22;12773;50.162;8.548;2022-11-24T12:13:33;12.70;99.90
24638;DHT22;12773;50.162;8.548;2022-11-24T12:16:55;12.70;99.90
24638;DHT22;12773;50.162;8.548;2022-11-24T12:19:50;12.60;99.90
24638;DHT22;12773;50.162;8.548;2022-11-24T12:25:50;12.60;99.90
24638;DHT22;12773;50.162;8.548;2022-11-24T12:28:44;12.60;99.90
24638;DHT22;12773;50.162;8.548;2022-11-24T12:31:50;12.60;99.90
24638;DHT22;12773;50.162;8.548;2022-11-24T12:37:54;12.90;99.90
24638;DHT22;12773;50.162;8.548;2022-11-24T12:43:54;12.80;99.90
24638;DHT22;12773;50.162;8.548;2022-11-24T12:46:50;13.10;99.90
24638;DHT22;12773;50.162;8.548;2022-11-24T12:53:12;13.00;99.90
24638;DHT22;12773;50.162;8.548;2022-11-24T12:56:32;13.20;99.90
24638;DHT22;12773;50.162;8.548;2022-11-24T12:59:29;13.10;99.90
24638;DHT22;12773;50.162;8.548;2022-11-24T13:05:21;12.90;99.90
24638;DHT22;12773;50.162;8.548;2022-11-24T13:08:08;12.80;99.90
24638;DHT22;12773;50.162;8.548;2022-11-24T13:14:11;12.40;99.90
24638;DHT22;12773;50.162;8.548;2022-11-24T13:17:00;12.50;99.90
24638;DHT22;12773;50.162;8.548;2022-11-24T13:19:49;12.60;99.90
24638;DHT22;12773;50.162;8.548;2022-11-24T13:22:38;12.60;99.90
24638;DHT22;12773;50.162;8.548;2022-11-24T13:25:28;12.70;99.90
24638;DHT22;12773;50.162;8.548;2022-11-24T13:29:03;12.70;99.90
24638;DHT22;12773;50.162;8.548;2022-11-24T13:31:09;12.70;99.90
24638;DHT22;12773;50.162;8.548;2022-11-24T13:33:57;12.70;99.90
24638;DHT22;12773;50.162;8.548;2022-11-24T13:36:52;12.60;99.90
24638;DHT22;12773;50.162;8.548;2022-11-24T13:39:58;12.60;99.90
24638;DHT22;12773;50.162;8.548;2022-11-24T13:45:48;12.50;99.90
24638;DHT22;12773;50.162;8.548;2022-11-24T13:51:32;12.50;99.90
24638;DHT22;12773;50.162;8.548;2022-11-24T13:54:20;12.70;99.90
24638;DHT22;12773;50.162;8.548;2022-11-24T13:57:36;12.80;99.90
24638;DHT22;12773;50.162;8.548;2022-11-24T14:00:26;13.10;99.90
24638;DHT22;12773;50.162;8.548;2022-11-24T14:03:25;13.30;99.90
24638;DHT22;12773;50.162;8.548;2022-11-24T14:06:46;13.20;99.90
24638;DHT22;12773;50.162;8.548;2022-11-24T14:09:50;13.30;99.90
24638;DHT22;12773;50.162;8.548;2022-11-24T14:12:34;13.00;99.90
24638;DHT22;12773;50.162;8.548;2022-11-24T14:15:26;12.90;99.90
24638;DHT22;12773;50.162;8.548;2022-11-24T14:18:23;12.80;99.90
24638;DHT22;12773;50.162;8.548;2022-11-24T14:24:24;12.90;99.90
24638;DHT22;12773;50.162;8.548;2022-11-24T14:27:02;13.00;99.90
24638;DHT22;12773;50.162;8.548;2022-11-24T14:29:55;13.00;99.90
24638;DHT22;12773;50.162;8.548;2022-11-24T14:32:56;13.00;99.90
24638;DHT22;12773;50.162;8.548;2022-11-24T14:35:47;13.00;99.90
24638;DHT22;12773;50.162;8.548;2022-11-24T14:38:34;13.10;99.90
24638;DHT22;12773;50.162;8.548;2022-11-24T14:41:24;13.10;99.90
24638;DHT22;12773;50.162;8.548;2022-11-24T14:44:24;13.00;99.90
24638;DHT22;12773;50.162;8.548;2022-11-24T14:47:18;12.90;99.90
24638;DHT22;12773;50.162;8.548;2022-11-24T14:50:14;12.70;99.90
24638;DHT22;12773;50.162;8.548;2022-11-24T14:53:01;12.50;99.90
24638;DHT22;12773;50.162;8.548;2022-11-24T14:56:05;12.40;99.90
24638;DHT22;12773;50.162;8.548;2022-11-24T14:58:39;12.20;99.90
24638;DHT22;12773;50.162;8.548;2022-11-24T15:01:35;12.20;99.90
24638;DHT22;12773;50.162;8.548;2022-11-24T15:04:29;12.20;99.90
24638;DHT22;12773;50.162;8.548;2022-11-24T15:07:22;12.20;99.90
24638;DHT22;12773;50.162;8.548;2022-11-24T15:10:33;12.10;99.90
24638;DHT22;12773;50.162;8.548;2022-11-24T15:13:22;12.10;99.90
24638;DHT22;12773;50.162;8.548;2022-11-24T15:16:15;12.00;99.90
24638;DHT22;12773;50.162;8.548;2022-11-24T15:19:04;11.90;99.90
24638;DHT22;12773;50.162;8.548;2022-11-24T15:21:53;11.80;99.90
24638;DHT22;12773;50.162;8.548;2022-11-24T15:24:48;11.70;99.90
24638;DHT22;12773;50.162;8.548;2022-11-24T15:27:37;11.60;99.90
24638;DHT22;12773;50.162;8.548;2022-11-24T15:30:25;11.50;99.90
24638;DHT22;12773;50.162;8.548;2022-11-24T15:33:15;11.40;99.90
24638;DHT22;12773;50.162;8.548;2022-11-24T15:36:03;11.40;99.90
24638;DHT22;12773;50.162;8.548;2022-11-24T15:38:51;11.40;99.90
24638;DHT22;12773;50.162;8.548;2022-11-24T15:41:39;11.40;99.90
24638;DHT22;12773;50.162;8.548;2022-11-24T15:44:27;11.40;99.90
24638;DHT22;12773;50.162;8.548;2022-11-24T15:47:15;11.40;99.90
24638;DHT22;12773;50.162;8.548;2022-11-24T15:50:03;11.30;99.90
24638;DHT22;12773;50.162;8.548;2022-11-24T15:52:51;11.30;99.90
24638;DHT22;12773;50.162;8.548;2022-11-24T15:55:40;11.30;99.90
24638;DHT22;12773;50.162;8.548;2022-11-24T15:58:27;11.30;99.90
24638;DHT22;12773;50.162;8.548;2022-11-24T16:01:14;11.20;99.90
24638;DHT22;12773;50.162;8.548;2022-11-24T16:04:02;11.10;99.90
24638;DHT22;12773;50.162;8.548;2022-11-24T16:06:49;11.10;99.90
24638;DHT22;12773;50.162;8.548;2022-11-24T16:09:37;10.90;99.90
24638;DHT22;12773;50.162;8.548;2022-11-24T16:12:24;10.80;99.90
24638;DHT22;12773;50.162;8.548;2022-11-24T16:15:11;10.70;99.90
24638;DHT22;12773;50.162;8.548;2022-11-24T16:17:59;10.60;99.90
24638;DHT22;12773;50.162;8.548;2022-11-24T16:20:46;10.40;99.90
24638;DHT22;12773;50.162;8.548;2022-11-24T16:23:34;10.00;99.90
24638;DHT22;12773;50.162;8.548;2022-11-24T16:26:21;9.70;99.90
24638;DHT22;12773;50.162;8.548;2022-11-24T16:29:09;9.60;99.90
24638;DHT22;12773;50.162;8.548;2022-11-24T16:31:56;9.20;99.90
24638;DHT22;12773;50.162;8.548;2022-11-24T16:34:43;9.00;99.90
24638;DHT22;12773;50.162;8.548;2022-11-24T16:37:31;8.80;99.90
24638;DHT22;12773;50.162;8.548;2022-11-24T16:40:18;8.60;99.90
24638;DHT22;12773;50.162;8.548;2022-11-24T16:43:05;8.50;99.90
24638;DHT22;12773;50.162;8.548;2022-11-24T16:49:01;8.50;99.90
24638;DHT22;12773;50.162;8.548;2022-11-24T16:51:49;8.40;99.90
24638;DHT22;12773;50.162;8.548;2022-11-24T16:54:37;8.20;99.90
24638;DHT22;12773;50.162;8.548;2022-11-24T16:57:24;8.00;99.90
24638;DHT22;12773;50.162;8.548;2022-11-24T17:00:12;7.90;99.90
24638;DHT22;12773;50.162;8.548;2022-11-24T17:03:21;7.80;99.90
24638;DHT22;12773;50.162;8.548;2022-11-24T17:06:11;7.70;99.90
24638;DHT22;12773;50.162;8.548;2022-11-24T17:09:01;7.70;99.90
24638;DHT22;12773;50.162;8.548;2022-11-24T17:11:48;7.50;99.90
24638;DHT22;12773;50.162;8.548;2022-11-24T17:14:35;7.40;99.90
24638;DHT22;12773;50.162;8.548;2022-11-24T17:17:23;7.50;99.90
24638;DHT22;12773;50.162;8.548;2022-11-24T17:20:11;7.40;99.90
24638;DHT22;12773;50.162;8.548;2022-11-24T17:22:58;7.30;99.90
24638;DHT22;12773;50.162;8.548;2022-11-24T17:25:45;7.20;99.90
24638;DHT22;12773;50.162;8.548;2022-11-24T17:28:34;7.00;99.90
24638;DHT22;12773;50.162;8.548;2022-11-24T17:31:27;6.80;99.90
24638;DHT22;12773;50.162;8.548;2022-11-24T17:34:16;6.80;99.90
24638;DHT22;12773;50.162;8.548;2022-11-24T17:37:03;6.80;99.90
24638;DHT22;12773;50.162;8.548;2022-11-24T17:39:50;6.80;99.90
24638;DHT22;12773;50.162;8.548;2022-11-24T17:42:39;6.70;99.90
24638;DHT22;12773;50.162;8.548;2022-11-24T17:45:28;6.60;99.90
24638;DHT22;12773;50.162;8.548;2022-11-24T17:48:15;6.60;99.90
24638;DHT22;12773;50.162;8.548;2022-11-24T17:51:05;6.50;99.90
24638;DHT22;12773;50.162;8.548;2022-11-24T17:53:57;6.40;99.90
24638;DHT22;12773;50.162;8.548;2022-11-24T17:56:46;6.30;99.90
24638;DHT22;12773;50.162;8.548;2022-11-24T17:59:34;6.30;99.90
24638;DHT22;12773;50.162;8.548;2022-11-24T18:02:21;6.10;99.90
24638;DHT22;12773;50.162;8.548;2022-11-24T18:05:08;6.00;99.90
24638;DHT22;12773;50.162;8.548;2022-11-24T18:07:56;6.10;99.90
24638;DHT22;12773;50.162;8.548;2022-11-24T18:10:43;6.20;99.90
24638;DHT22;12773;50.162;8.548;2022-11-24T18:13:32;6.20;99.90
24638;DHT22;12773;50.162;8.548;2022-11-24T18:16:20;6.20;99.90
24638;DHT22;12773;50.162;8.548;2022-11-24T18:19:09;6.30;99.90
24638;DHT22;12773;50.162;8.548;2022-11-24T18:21:57;6.30;99.90
24638;DHT22;12773;50.162;8.548;2022-11-24T18:24:44;6.40;99.90
24638;DHT22;12773;50.162;8.548;2022-11-24T18:27:32;6.40;99.90
24638;DHT22;12773;50.162;8.548;2022-11-24T18:30:21;6.50;99.90
24638;DHT22;12773;50.162;8.548;2022-11-24T18:33:08;6.50;99.90
24638;DHT22;12773;50.162;8.548;2022-11-24T18:35:57;6.50;99.90
24638;DHT22;12773;50.162;8.548;2022-11-24T18:38:45;6.50;99.90
24638;DHT22;12773;50.162;8.548;2022-11-24T18:41:32;6.60;99.90
24638;DHT22;12773;50.162;8.548;2022-11-24T18:44:20;6.70;99.90
24638;DHT22;12773;50.162;8.548;2022-11-24T18:47:07;6.80;99.90
24638;DHT22;12773;50.162;8.548;2022-11-24T18:49:54;7.00;99.90
24638;DHT22;12773;50.162;8.548;2022-11-24T18:52:43;7.20;99.90
24638;DHT22;12773;50.162;8.548;2022-11-24T18:55:31;7.10;99.90
24638;DHT22;12773;50.162;8.548;2022-11-24T18:58:18;7.00;99.90
24638;DHT22;12773;50.162;8.548;2022-11-24T19:01:10;7.00;99.90
24638;DHT22;12773;50.162;8.548;2022-11-24T19:04:00;7.00;99.90
24638;DHT22;12773;50.162;8.548;2022-11-24T19:06:48;7.10;99.90
24638;DHT22;12773;50.162;8.548;2022-11-24T19:09:35;7.00;99.90
24638;DHT22;12773;50.162;8.548;2022-11-24T19:12:23;6.90;99.90
24638;DHT22;12773;50.162;8.548;2022-11-24T19:15:10;6.80;99.90